createdAt,value
2018-03-01T00:00:10.027Z,34.53
2018-03-01T00:02:37.608Z,29.30
2018-03-01T00:05:05.166Z,27.93
2018-03-01T00:07:32.755Z,28.57
2018-03-01T00:10:01.125Z,34.27
2018-03-01T00:12:29.436Z,31.03
2018-03-01T00:14:57.015Z,30.73
2018-03-01T00:17:24.569Z,29.23
2018-03-01T00:19:52.151Z,33.43
2018-03-01T00:22:40.533Z,33.97
2018-03-01T00:25:08.866Z,27.33
2018-03-01T00:27:36.511Z,33.63
2018-03-01T00:30:04.078Z,35.07
2018-03-01T00:32:31.647Z,35.13
2018-03-01T00:34:59.292Z,35.20
2018-03-01T00:37:26.864Z,31.97
2018-03-01T00:39:54.421Z,23.73
2018-03-01T00:42:21.991Z,31.63
2018-03-01T00:44:49.545Z,30.33
2018-03-01T00:47:17.197Z,30.50
2018-03-01T00:49:44.722Z,29.33
2018-03-01T00:52:12.272Z,30.57
2018-03-01T00:54:39.849Z,29.93
2018-03-01T00:57:07.434Z,31.73
2018-03-01T00:59:35.788Z,31.63
2018-03-01T01:02:04.099Z,31.13
2018-03-01T01:04:31.675Z,29.33
2018-03-01T01:06:59.223Z,28.80
2018-03-01T01:09:26.769Z,34.10
2018-03-01T01:11:54.338Z,27.53
2018-03-01T01:14:21.863Z,26.20
2018-03-01T01:16:49.454Z,26.90
2018-03-01T01:19:17.791Z,27.50
2018-03-01T01:21:45.389Z,30.17
2018-03-01T01:24:12.975Z,32.03
2018-03-01T01:26:40.569Z,29.60
2018-03-01T01:29:08.136Z,27.50
2018-03-01T01:31:35.668Z,26.40
2018-03-01T01:34:03.289Z,29.50
2018-03-01T01:36:30.917Z,34.50
2018-03-01T01:38:58.517Z,35.90
2018-03-01T01:41:26.069Z,27.90
2018-03-01T01:43:53.624Z,32.50
2018-03-01T01:46:21.186Z,31.13
2018-03-01T01:48:48.763Z,31.03
2018-03-01T01:51:16.329Z,28.40
2018-03-01T01:53:43.872Z,27.37
2018-03-01T01:56:11.439Z,29.80
2018-03-01T01:58:38.978Z,29.67
2018-03-01T02:01:06.630Z,24.80
2018-03-01T02:03:34.177Z,28.50
2018-03-01T02:06:01.772Z,28.00
2018-03-01T02:08:29.333Z,25.53
2018-03-01T02:10:56.881Z,29.67
2018-03-01T02:13:24.437Z,31.93
2018-03-01T02:15:51.975Z,26.87
2018-03-01T02:18:19.620Z,26.33
2018-03-01T02:20:47.282Z,27.20
2018-03-01T02:23:14.843Z,29.57
2018-03-01T02:25:43.181Z,31.10
2018-03-01T02:28:10.731Z,33.57
2018-03-01T02:30:38.314Z,32.83
2018-03-01T02:33:05.900Z,36.37
2018-03-01T02:35:34.227Z,33.77
2018-03-01T02:38:01.777Z,27.23
2018-03-01T02:40:29.315Z,30.70
2018-03-01T02:42:57.306Z,33.90
2018-03-01T02:45:24.840Z,29.73
2018-03-01T02:47:52.389Z,30.47
2018-03-01T02:50:19.938Z,28.77
2018-03-01T02:52:48.241Z,30.00
2018-03-01T02:55:15.795Z,30.93
2018-03-01T02:57:43.419Z,35.37
2018-03-01T03:00:11.147Z,32.87
2018-03-01T03:02:38.711Z,28.97
2018-03-01T03:05:06.265Z,31.27
2018-03-01T03:07:33.843Z,29.67
2018-03-01T03:10:01.808Z,29.87
2018-03-01T03:12:29.344Z,28.00
2018-03-01T03:14:56.911Z,29.03
2018-03-01T03:17:24.460Z,37.37
2018-03-01T03:19:52.007Z,32.53
2018-03-01T03:22:19.581Z,31.13
2018-03-01T03:24:47.148Z,29.87
2018-03-01T03:27:14.736Z,31.27
2018-03-01T03:29:42.360Z,36.40
2018-03-01T03:32:09.909Z,27.50
2018-03-01T03:34:37.475Z,30.40
2018-03-01T03:37:04.995Z,33.30
2018-03-01T03:39:32.551Z,29.40
2018-03-01T03:42:00.940Z,32.60
2018-03-01T03:44:28.538Z,25.10
2018-03-01T03:46:56.074Z,33.40
2018-03-01T03:49:24.411Z,30.27
2018-03-01T03:51:52.024Z,32.67
2018-03-01T03:54:19.624Z,29.90
2018-03-01T03:56:47.164Z,33.17
2018-03-01T03:59:14.833Z,30.23
2018-03-01T04:01:42.908Z,30.37
2018-03-01T04:04:10.476Z,28.80
2018-03-01T04:06:38.011Z,30.50
2018-03-01T04:09:05.559Z,27.07
2018-03-01T04:11:33.092Z,24.40
2018-03-01T04:14:01.433Z,29.80
2018-03-01T04:16:28.993Z,29.50
2018-03-01T04:18:56.580Z,30.97
2018-03-01T04:21:24.128Z,30.60
2018-03-01T04:23:52.027Z,30.13
2018-03-01T04:26:19.728Z,33.07
2018-03-01T04:28:47.301Z,26.57
2018-03-01T04:31:14.860Z,28.27
2018-03-01T04:33:42.383Z,27.40
2018-03-01T04:36:10.996Z,28.13
2018-03-01T04:38:38.530Z,31.13
2018-03-01T04:41:06.114Z,31.47
2018-03-01T04:43:33.703Z,32.77
2018-03-01T04:46:01.401Z,28.53
2018-03-01T04:48:28.940Z,31.40
2018-03-01T04:50:56.507Z,30.53
2018-03-01T04:53:24.092Z,30.33
2018-03-01T04:55:51.656Z,27.77
2018-03-01T04:58:19.249Z,27.83
2018-03-01T05:00:46.830Z,28.77
2018-03-01T05:03:14.386Z,35.30
2018-03-01T05:05:41.949Z,27.03
2018-03-01T05:08:09.491Z,32.97
2018-03-01T05:10:37.080Z,35.10
2018-03-01T05:13:04.643Z,28.73
2018-03-01T05:15:32.172Z,25.87
2018-03-01T05:17:59.729Z,30.50
2018-03-01T05:20:27.257Z,30.43
2018-03-01T05:22:54.824Z,31.87
2018-03-01T05:25:22.367Z,27.97
2018-03-01T05:27:49.968Z,30.67
2018-03-01T05:30:17.554Z,33.10
2018-03-01T05:32:45.127Z,31.23
2018-03-01T05:35:12.737Z,30.53
2018-03-01T05:37:40.298Z,29.93
2018-03-01T05:40:07.927Z,33.27
2018-03-01T05:42:35.513Z,30.07
2018-03-01T05:45:03.062Z,27.70
2018-03-01T05:47:31.333Z,33.60
2018-03-01T05:49:58.884Z,31.67
2018-03-01T05:52:26.432Z,27.30
2018-03-01T05:54:54.015Z,33.80
2018-03-01T05:57:21.684Z,29.37
2018-03-01T05:59:49.255Z,29.07
2018-03-01T06:02:16.857Z,30.60
2018-03-01T06:04:44.402Z,29.37
2018-03-01T06:07:11.955Z,31.70
2018-03-01T06:09:39.516Z,28.23
2018-03-01T06:12:07.072Z,28.23
2018-03-01T06:14:34.655Z,28.77
2018-03-01T06:17:02.222Z,27.83
2018-03-01T06:19:29.866Z,32.83
2018-03-01T06:21:57.443Z,28.50
2018-03-01T06:24:25.003Z,30.97
2018-03-01T06:26:52.614Z,34.17
2018-03-01T06:29:20.196Z,29.83
2018-03-01T06:31:47.796Z,32.70
2018-03-01T06:34:15.356Z,28.90
2018-03-01T06:36:42.905Z,32.63
2018-03-01T06:39:10.464Z,29.13
2018-03-01T06:41:38.484Z,27.87
2018-03-01T06:44:06.027Z,27.93
2018-03-01T06:46:33.589Z,31.70
2018-03-01T06:49:01.185Z,28.37
2018-03-01T06:51:28.784Z,36.93
2018-03-01T06:53:56.350Z,31.93
2018-03-01T06:56:24.632Z,28.93
2018-03-01T06:58:52.360Z,32.43
2018-03-01T07:01:19.955Z,29.93
2018-03-01T07:03:47.498Z,29.50
2018-03-01T07:06:15.082Z,27.53
2018-03-01T07:08:42.629Z,40.90
2018-03-01T07:11:10.980Z,28.80
2018-03-01T07:13:39.355Z,29.57
2018-03-01T07:16:06.957Z,32.43
2018-03-01T07:18:34.610Z,27.20
2018-03-01T07:21:02.988Z,26.87
2018-03-01T07:23:31.708Z,33.33
2018-03-01T07:25:59.534Z,31.77
2018-03-01T07:28:27.242Z,32.27
2018-03-01T07:30:54.971Z,26.33
2018-03-01T07:33:23.378Z,33.13
2018-03-01T07:35:50.962Z,33.27
2018-03-01T07:38:18.520Z,30.13
2018-03-01T07:40:46.085Z,43.63
2018-03-01T07:43:13.662Z,36.90
2018-03-01T07:45:41.202Z,31.27
2018-03-01T07:48:08.780Z,32.93
2018-03-01T07:50:36.341Z,31.40
2018-03-01T07:53:03.985Z,28.30
2018-03-01T07:55:31.611Z,31.83
2018-03-01T07:57:59.518Z,30.73
2018-03-01T08:00:27.158Z,33.83
2018-03-01T08:02:54.846Z,31.70
2018-03-01T08:05:22.392Z,28.70
2018-03-01T08:07:49.996Z,32.80
2018-03-01T08:10:17.673Z,31.90
2018-03-01T08:12:45.240Z,29.83
2018-03-01T08:15:12.881Z,27.67
2018-03-01T08:17:41.391Z,31.97
2018-03-01T08:20:09.373Z,29.70
2018-03-01T08:22:36.914Z,30.40
2018-03-01T08:25:05.226Z,28.23
2018-03-01T08:27:32.796Z,31.83
2018-03-01T08:30:00.442Z,34.77
2018-03-01T08:32:28.004Z,31.73
2018-03-01T08:34:55.626Z,32.53
2018-03-01T08:37:23.983Z,40.60
2018-03-01T08:39:52.800Z,31.77
2018-03-01T08:42:20.435Z,28.90
2018-03-01T08:44:48.931Z,30.53
2018-03-01T08:47:16.528Z,31.17
2018-03-01T08:49:44.117Z,25.53
2018-03-01T08:52:11.926Z,35.20
2018-03-01T08:54:39.586Z,28.50
2018-03-01T08:57:07.158Z,31.07
2018-03-01T08:59:34.760Z,30.57
2018-03-01T09:02:02.414Z,31.90
2018-03-01T09:04:30.066Z,32.37
2018-03-01T09:06:57.672Z,30.43
2018-03-01T09:09:25.552Z,29.90
2018-03-01T09:11:53.185Z,35.27
2018-03-01T09:14:20.803Z,31.17
2018-03-01T09:16:48.668Z,34.70
2018-03-01T09:19:16.199Z,29.10
2018-03-01T09:21:43.766Z,32.63
2018-03-01T09:24:11.295Z,31.50
2018-03-01T09:26:38.913Z,33.17
2018-03-01T09:29:06.674Z,33.40
2018-03-01T09:31:34.316Z,30.93
2018-03-01T09:34:01.949Z,27.53
2018-03-01T09:36:29.508Z,33.07
2018-03-01T09:38:57.207Z,30.73
2018-03-01T09:41:24.907Z,36.43
2018-03-01T09:43:52.541Z,30.47
2018-03-01T09:46:20.149Z,36.73
2018-03-01T09:48:47.717Z,26.83
2018-03-01T09:51:15.363Z,30.87
2018-03-01T09:53:42.962Z,31.83
2018-03-01T09:56:10.528Z,36.77
2018-03-01T09:58:38.107Z,35.83
2018-03-01T10:01:06.292Z,30.07
2018-03-01T10:03:34.010Z,29.13
2018-03-01T10:06:01.658Z,31.57
2018-03-01T10:08:30.025Z,30.23
2018-03-01T10:10:57.715Z,33.33
2018-03-01T10:13:25.585Z,31.60
2018-03-01T10:15:53.956Z,29.60
2018-03-01T10:18:22.259Z,27.77
2018-03-01T10:20:49.865Z,35.03
2018-03-01T10:23:17.482Z,34.67
2018-03-01T10:25:45.108Z,30.27
2018-03-01T10:28:12.698Z,29.47
2018-03-01T10:30:40.289Z,27.10
2018-03-01T10:33:08.670Z,29.20
2018-03-01T10:35:36.535Z,28.47
2018-03-01T10:38:04.148Z,32.87
2018-03-01T10:40:32.812Z,30.97
2018-03-01T10:43:00.515Z,27.87
2018-03-01T10:45:28.103Z,31.20
2018-03-01T10:47:55.667Z,31.77
2018-03-01T10:50:23.260Z,29.33
2018-03-01T10:52:51.768Z,30.70
2018-03-01T10:55:19.318Z,29.00
2018-03-01T10:57:47.027Z,29.03
2018-03-01T11:00:20.168Z,31.07
2018-03-01T11:02:48.497Z,28.27
2018-03-01T11:05:16.035Z,28.67
2018-03-01T11:07:43.736Z,29.77
2018-03-01T11:10:11.339Z,32.70
2018-03-01T11:12:38.916Z,31.87
2018-03-01T11:15:06.666Z,34.37
2018-03-01T11:17:34.372Z,35.60
2018-03-01T11:20:02.001Z,33.17
2018-03-01T11:22:29.780Z,28.87
2018-03-01T11:24:57.402Z,34.73
2018-03-01T11:27:24.967Z,29.20
2018-03-01T11:29:53.696Z,34.43
2018-03-01T11:32:21.296Z,29.20
2018-03-01T11:34:49.325Z,30.40
2018-03-01T11:37:16.870Z,30.63
2018-03-01T11:39:45.517Z,35.80
2018-03-01T11:42:13.102Z,34.50
2018-03-01T11:44:40.659Z,28.47
2018-03-01T11:47:08.228Z,26.40
2018-03-01T11:49:35.789Z,28.97
2018-03-01T11:52:03.391Z,31.60
2018-03-01T11:54:30.951Z,29.30
2018-03-01T11:56:58.657Z,31.93
2018-03-01T11:59:26.287Z,36.27
2018-03-01T12:01:53.979Z,33.40
2018-03-01T12:04:22.318Z,31.43
2018-03-01T12:06:49.862Z,29.23
2018-03-01T12:09:17.630Z,28.43
2018-03-01T12:11:45.704Z,38.60
2018-03-01T12:14:13.324Z,28.03
2018-03-01T12:16:40.883Z,31.63
2018-03-01T12:19:09.275Z,31.73
2018-03-01T12:21:36.981Z,32.70
2018-03-01T12:24:04.588Z,33.70
2018-03-01T12:26:32.141Z,28.07
2018-03-01T12:28:59.715Z,34.20
2018-03-01T12:31:27.416Z,31.10
2018-03-01T12:33:54.968Z,29.43
2018-03-01T12:36:22.503Z,30.60
2018-03-01T12:38:50.044Z,24.83
2018-03-01T12:41:17.723Z,31.87
2018-03-01T12:43:45.307Z,26.03
2018-03-01T12:46:12.847Z,27.87
2018-03-01T12:48:40.415Z,28.27
2018-03-01T12:51:08.017Z,32.20
2018-03-01T12:53:35.606Z,29.27
2018-03-01T12:56:03.180Z,29.37
2018-03-01T12:58:30.737Z,30.53
2018-03-01T13:00:58.442Z,29.00
2018-03-01T13:03:26.156Z,30.30
2018-03-01T13:05:53.757Z,32.27
2018-03-01T13:08:21.300Z,31.50
2018-03-01T13:10:48.941Z,37.40
2018-03-01T13:13:16.505Z,25.97
2018-03-01T13:15:44.549Z,26.17
2018-03-01T13:18:12.122Z,31.20
2018-03-01T13:20:39.751Z,30.23
2018-03-01T13:23:07.304Z,30.47
2018-03-01T13:25:35.016Z,27.30
2018-03-01T13:28:02.559Z,31.67
2018-03-01T13:33:40.962Z,31.13
2018-03-01T13:36:08.683Z,28.73
2018-03-01T13:38:36.964Z,28.97
2018-03-01T13:41:04.616Z,28.50
2018-03-01T13:43:49.006Z,25.47
2018-03-01T13:46:16.621Z,32.37
2018-03-01T13:48:44.188Z,34.63
2018-03-01T13:51:11.827Z,28.47
2018-03-01T13:53:42.373Z,28.17
2018-03-01T13:56:10.045Z,27.37
2018-03-01T13:58:37.602Z,25.93
2018-03-01T14:01:05.398Z,26.70
2018-03-01T14:03:33.016Z,30.00
2018-03-01T14:09:08.877Z,31.73
2018-03-01T14:11:36.591Z,29.23
2018-03-01T14:14:05.820Z,28.30
2018-03-01T14:16:33.391Z,30.80
2018-03-01T14:19:02.425Z,29.47
2018-03-01T14:21:35.591Z,26.77
2018-03-01T14:24:05.640Z,27.27
2018-03-01T14:26:35.712Z,28.43
2018-03-01T14:29:18.136Z,30.53
2018-03-01T14:31:45.872Z,32.27
2018-03-01T14:34:16.956Z,32.03
2018-03-01T14:36:44.583Z,28.40
2018-03-01T14:39:12.175Z,29.47
2018-03-01T14:41:39.850Z,27.70
2018-03-01T14:44:07.434Z,31.87
2018-03-01T14:46:35.593Z,32.43
2018-03-01T14:49:03.374Z,27.07
2018-03-01T14:51:31.476Z,31.57
2018-03-01T14:53:59.019Z,30.83
2018-03-01T14:56:26.580Z,28.30
2018-03-01T14:58:54.125Z,36.87
2018-03-01T15:01:24.608Z,30.50
2018-03-01T15:03:52.536Z,27.50
2018-03-01T15:06:20.689Z,29.80
2018-03-01T15:08:49.175Z,27.33
2018-03-01T15:11:16.726Z,31.33
2018-03-01T15:13:44.278Z,25.47
2018-03-01T15:16:11.859Z,29.17
2018-03-01T15:18:39.435Z,31.97
2018-03-01T15:21:07.067Z,32.83
2018-03-01T15:23:35.580Z,28.93
2018-03-01T15:26:03.169Z,29.10
2018-03-01T15:28:30.780Z,27.20
2018-03-01T15:30:58.464Z,27.27
2018-03-01T15:33:26.028Z,27.53
2018-03-01T15:35:54.159Z,26.50
2018-03-01T15:38:21.784Z,33.07
2018-03-01T15:40:49.321Z,30.13
2018-03-01T15:43:16.913Z,31.63
2018-03-01T15:45:44.458Z,29.33
2018-03-01T15:48:12.021Z,30.53
2018-03-01T15:50:39.640Z,27.53
2018-03-01T15:53:08.608Z,30.37
2018-03-01T15:55:37.095Z,28.43
2018-03-01T15:58:04.671Z,26.27
2018-03-01T16:00:32.616Z,29.17
2018-03-01T16:03:00.709Z,28.43
2018-03-01T16:05:28.301Z,30.97
2018-03-01T16:07:55.833Z,28.97
2018-03-01T16:10:23.481Z,31.60
2018-03-01T16:12:51.016Z,32.03
2018-03-01T16:15:18.588Z,34.53
2018-03-01T16:17:46.169Z,32.63
2018-03-01T16:20:13.732Z,30.67
2018-03-01T16:22:41.528Z,32.27
2018-03-01T16:25:09.151Z,32.07
2018-03-01T16:27:36.696Z,32.10
2018-03-01T16:30:04.307Z,32.70
2018-03-01T16:32:31.852Z,30.17
2018-03-01T16:34:59.451Z,32.60
2018-03-01T16:37:27.076Z,27.90
2018-03-01T16:39:54.673Z,36.73
2018-03-01T16:42:22.264Z,30.10
2018-03-01T16:44:49.981Z,31.80
2018-03-01T16:47:17.516Z,32.53
2018-03-01T16:49:45.180Z,33.53
2018-03-01T16:52:12.709Z,32.80
2018-03-01T16:54:40.359Z,37.00
2018-03-01T16:57:07.907Z,38.67
2018-03-01T16:59:36.267Z,34.13
2018-03-01T17:02:04.638Z,33.67
2018-03-01T17:04:33.168Z,34.03
2018-03-01T17:07:00.695Z,44.13
2018-03-01T17:09:28.252Z,34.87
2018-03-01T17:11:55.776Z,33.83
2018-03-01T17:14:23.527Z,34.20
2018-03-01T17:16:51.140Z,29.33
2018-03-01T17:19:18.730Z,30.83
2018-03-01T17:21:46.315Z,33.27
2018-03-01T17:24:14.006Z,34.70
2018-03-01T17:26:41.543Z,36.50
2018-03-01T17:29:09.177Z,34.57
2018-03-01T17:31:36.706Z,38.13
2018-03-01T17:34:04.254Z,36.57
2018-03-01T17:36:31.812Z,32.67
2018-03-01T17:38:59.372Z,33.37
2018-03-01T17:41:26.989Z,38.30
2018-03-01T17:43:54.551Z,32.03
2018-03-01T17:46:22.156Z,38.23
2018-03-01T17:48:49.694Z,34.60
2018-03-01T17:51:17.250Z,37.53
2018-03-01T17:53:44.813Z,39.47
2018-03-01T17:56:12.464Z,37.23
2018-03-01T17:58:40.057Z,38.07
2018-03-01T18:01:07.618Z,33.17
2018-03-01T18:03:35.192Z,38.63
2018-03-01T18:06:02.710Z,35.30
2018-03-01T18:08:30.320Z,30.00
2018-03-01T18:10:58.684Z,34.23
2018-03-01T18:13:27.009Z,35.63
2018-03-01T18:15:54.590Z,30.93
2018-03-01T18:18:22.131Z,34.60
2018-03-01T18:20:50.745Z,35.93
2018-03-01T18:23:18.375Z,32.10
2018-03-01T18:25:45.930Z,36.40
2018-03-01T18:28:13.493Z,36.17
2018-03-01T18:30:41.052Z,37.87
2018-03-01T18:33:08.590Z,42.70
2018-03-01T18:35:36.174Z,30.50
2018-03-01T18:38:03.768Z,39.07
2018-03-01T18:40:31.292Z,42.70
2018-03-01T18:42:58.873Z,33.20
2018-03-01T18:45:26.552Z,34.97
2018-03-01T18:47:54.111Z,37.00
2018-03-01T18:50:21.654Z,35.40
2018-03-01T18:52:49.215Z,34.30
2018-03-01T18:55:16.778Z,37.27
2018-03-01T18:57:44.328Z,34.37
2018-03-01T19:00:11.875Z,36.33
2018-03-01T19:02:39.405Z,35.13
2018-03-01T19:05:07.097Z,33.90
2018-03-01T19:07:34.713Z,38.47
2018-03-01T19:10:02.272Z,34.60
2018-03-01T19:12:30.564Z,35.83
2018-03-01T19:14:58.123Z,36.13
2018-03-01T19:17:26.431Z,39.30
2018-03-01T19:19:53.993Z,38.93
2018-03-01T19:22:21.763Z,34.13
2018-03-01T19:24:49.283Z,39.60
2018-03-01T19:27:16.836Z,32.33
2018-03-01T19:29:44.575Z,32.70
2018-03-01T19:32:12.097Z,37.67
2018-03-01T19:34:39.728Z,36.77
2018-03-01T19:37:07.768Z,36.57
2018-03-01T19:39:35.409Z,38.63
2018-03-01T19:42:03.049Z,39.40
2018-03-01T19:44:30.596Z,36.93
2018-03-01T19:46:58.231Z,36.03
2018-03-01T19:49:25.839Z,43.10
2018-03-01T19:51:53.416Z,36.10
2018-03-01T19:54:20.938Z,40.07
2018-03-01T19:56:48.522Z,36.63
2018-03-01T19:59:16.097Z,38.83
2018-03-01T20:01:43.661Z,38.47
2018-03-01T20:04:11.319Z,40.57
2018-03-01T20:06:38.879Z,40.80
2018-03-01T20:09:06.436Z,39.33
2018-03-01T20:11:34.012Z,38.40
2018-03-01T20:14:01.564Z,38.17
2018-03-01T20:16:29.127Z,40.27
2018-03-01T20:18:56.760Z,42.07
2018-03-01T20:21:24.278Z,37.47
2018-03-01T20:23:51.878Z,40.10
2018-03-01T20:26:19.480Z,39.87
2018-03-01T20:28:47.031Z,41.77
2018-03-01T20:31:14.560Z,39.57
2018-03-01T20:33:42.126Z,36.90
2018-03-01T20:36:09.770Z,38.50
2018-03-01T20:38:37.300Z,40.77
2018-03-01T20:41:04.876Z,37.13
2018-03-01T20:43:32.693Z,41.10
2018-03-01T20:46:00.269Z,41.70
2018-03-01T20:48:27.829Z,44.40
2018-03-01T20:50:55.372Z,48.10
2018-03-01T20:53:22.984Z,46.20
2018-03-01T20:55:50.543Z,46.50
2018-03-01T20:58:18.080Z,42.83
2018-03-01T21:00:46.445Z,42.53
2018-03-01T21:03:14.032Z,41.57
2018-03-01T21:05:41.568Z,43.83
2018-03-01T21:08:09.175Z,45.10
2018-03-01T21:10:36.713Z,46.47
2018-03-01T21:13:04.517Z,45.87
2018-03-01T21:15:32.085Z,39.10
2018-03-01T21:17:59.658Z,39.40
2018-03-01T21:20:27.233Z,41.17
2018-03-01T21:22:55.306Z,39.57
2018-03-01T21:25:22.916Z,43.43
2018-03-01T21:27:50.461Z,46.70
2018-03-01T21:30:18.034Z,43.63
2018-03-01T21:32:45.586Z,42.67
2018-03-01T21:35:13.140Z,44.43
2018-03-01T21:37:40.741Z,44.73
2018-03-01T21:40:08.312Z,47.63
2018-03-01T21:42:35.840Z,41.50
2018-03-01T21:45:03.371Z,42.07
2018-03-01T21:47:30.982Z,44.83
2018-03-01T21:49:58.515Z,46.67
2018-03-01T21:52:26.077Z,43.27
2018-03-01T21:54:53.633Z,50.90
2018-03-01T21:57:21.192Z,42.53
2018-03-01T21:59:49.660Z,43.10
2018-03-01T22:02:17.186Z,45.33
2018-03-01T22:04:45.512Z,42.63
2018-03-01T22:07:13.074Z,39.07
2018-03-01T22:09:40.659Z,49.87
2018-03-01T22:12:08.211Z,45.23
2018-03-01T22:14:35.786Z,49.23
2018-03-01T22:17:03.342Z,49.17
2018-03-01T22:19:30.913Z,45.70
2018-03-01T22:21:58.567Z,45.40
2018-03-01T22:24:26.127Z,44.27
2018-03-01T22:26:53.703Z,47.23
2018-03-01T22:29:21.327Z,48.47
2018-03-01T22:31:48.932Z,47.00
2018-03-01T22:34:16.490Z,48.80
2018-03-01T22:36:44.052Z,45.33
2018-03-01T22:39:13.295Z,51.50
2018-03-01T22:41:40.829Z,49.27
2018-03-01T22:44:08.357Z,50.30
2018-03-01T22:46:35.975Z,45.83
2018-03-01T22:49:03.762Z,49.60
2018-03-01T22:51:31.345Z,48.70
2018-03-01T22:53:58.924Z,52.53
2018-03-01T22:56:26.465Z,45.80
2018-03-01T22:58:54.097Z,47.57
2018-03-01T23:01:21.638Z,44.90
2018-03-01T23:03:49.168Z,47.90
2018-03-01T23:06:17.495Z,49.80
2018-03-01T23:08:45.059Z,47.80
2018-03-01T23:11:12.604Z,47.63
2018-03-01T23:13:40.155Z,51.33
2018-03-01T23:16:07.705Z,47.07
2018-03-01T23:18:35.286Z,44.60
2018-03-01T23:21:02.883Z,49.37
2018-03-01T23:23:30.445Z,48.97
2018-03-01T23:25:58.001Z,50.77
2018-03-01T23:28:25.566Z,49.20
2018-03-01T23:30:53.911Z,46.97
2018-03-01T23:33:21.488Z,51.13
2018-03-01T23:35:49.023Z,50.13
2018-03-01T23:38:16.586Z,53.10
2018-03-01T23:40:44.239Z,55.07
2018-03-01T23:43:11.814Z,59.00
2018-03-01T23:45:39.351Z,46.70
2018-03-01T23:48:06.936Z,50.37
2018-03-01T23:50:34.474Z,45.23
2018-03-01T23:53:02.009Z,48.63
2018-03-01T23:55:29.568Z,45.77
2018-03-01T23:57:57.127Z,51.50
